createdAt,value
2019-03-29T00:01:26.751Z,53.15
2019-03-29T00:03:57.798Z,55.22
2019-03-29T00:06:29.049Z,55.93
2019-03-29T00:09:01.964Z,54.84
2019-03-29T00:11:35.282Z,53.56
2019-03-29T00:14:10.129Z,56.87
2019-03-29T00:16:41.294Z,55.60
2019-03-29T00:19:12.466Z,56.35
2019-03-29T00:21:44.960Z,56.67
2019-03-29T00:24:16.090Z,55.24
2019-03-29T00:26:47.544Z,55.65
2019-03-29T00:29:19.055Z,55.26
2019-03-29T00:31:50.252Z,55.98
2019-03-29T00:34:21.495Z,55.64
2019-03-29T00:36:52.739Z,55.18
2019-03-29T00:39:25.505Z,55.47
2019-03-29T00:41:56.708Z,55.51
2019-03-29T00:44:28.820Z,55.45
2019-03-29T00:47:00.114Z,55.29
2019-03-29T00:49:31.296Z,56.01
2019-03-29T00:52:02.401Z,57.27
2019-03-29T00:54:33.497Z,55.45
2019-03-29T00:57:05.016Z,55.77
2019-03-29T00:59:36.358Z,55.82
2019-03-29T01:02:07.454Z,55.90
2019-03-29T01:04:38.737Z,55.89
2019-03-29T01:07:09.834Z,55.98
2019-03-29T01:09:41.050Z,55.19
2019-03-29T01:12:12.103Z,55.79
2019-03-29T01:14:43.303Z,55.48
2019-03-29T01:17:14.417Z,55.40
2019-03-29T01:19:45.626Z,55.53
2019-03-29T01:22:16.795Z,56.24
2019-03-29T01:24:47.998Z,56.07
2019-03-29T01:27:19.445Z,55.96
2019-03-29T01:29:51.576Z,55.19
2019-03-29T01:32:22.741Z,54.37
2019-03-29T01:34:53.931Z,54.90
2019-03-29T01:37:24.990Z,53.54
2019-03-29T01:39:57.241Z,53.28
2019-03-29T01:42:28.263Z,53.19
2019-03-29T01:45:00.392Z,53.94
2019-03-29T01:47:31.511Z,53.67
2019-03-29T01:50:02.944Z,53.92
2019-03-29T01:52:34.056Z,52.51
2019-03-29T01:55:08.281Z,52.42
2019-03-29T01:57:39.513Z,52.43
2019-03-29T02:00:10.735Z,51.79
2019-03-29T02:02:41.975Z,51.67
2019-03-29T02:05:13.013Z,51.43
2019-03-29T02:07:44.147Z,51.51
2019-03-29T02:10:15.454Z,51.46
2019-03-29T02:12:46.582Z,50.91
2019-03-29T02:15:17.709Z,50.86
2019-03-29T02:17:48.954Z,50.42
2019-03-29T02:20:20.039Z,50.21
2019-03-29T02:22:51.153Z,49.79
2019-03-29T02:25:22.359Z,49.71
2019-03-29T02:27:53.471Z,49.43
2019-03-29T02:30:24.728Z,49.17
2019-03-29T02:32:56.031Z,49.04
2019-03-29T02:35:27.025Z,49.34
2019-03-29T02:37:58.244Z,49.74
2019-03-29T02:40:29.340Z,49.26
2019-03-29T02:43:00.385Z,49.37
2019-03-29T02:45:31.474Z,50.01
2019-03-29T02:48:04.143Z,49.92
2019-03-29T02:50:36.652Z,49.73
2019-03-29T02:53:09.030Z,49.76
2019-03-29T02:55:40.122Z,49.68
2019-03-29T02:58:11.478Z,49.78
2019-03-29T03:00:42.579Z,49.86
2019-03-29T03:03:13.667Z,49.87
2019-03-29T03:05:44.834Z,50.44
2019-03-29T03:08:15.952Z,50.35
2019-03-29T03:10:47.149Z,50.24
2019-03-29T03:13:18.298Z,50.38
2019-03-29T03:15:50.848Z,50.61
2019-03-29T03:18:21.940Z,51.00
2019-03-29T03:20:52.985Z,50.71
2019-03-29T03:23:24.112Z,50.87
2019-03-29T03:25:55.240Z,50.90
2019-03-29T03:28:26.487Z,50.78
2019-03-29T03:30:57.654Z,51.20
2019-03-29T03:33:29.826Z,51.24
2019-03-29T03:36:02.173Z,51.09
2019-03-29T03:38:33.239Z,51.38
2019-03-29T03:41:04.287Z,51.31
2019-03-29T03:43:35.449Z,51.44
2019-03-29T03:46:07.734Z,51.57
2019-03-29T03:48:40.044Z,51.65
2019-03-29T03:51:11.098Z,51.76
2019-03-29T03:53:42.562Z,52.02
2019-03-29T03:56:15.169Z,52.36
2019-03-29T03:58:46.234Z,51.95
2019-03-29T04:01:17.338Z,52.05
2019-03-29T04:03:49.300Z,52.11
2019-03-29T04:06:20.365Z,52.23
2019-03-29T04:08:51.549Z,52.25
2019-03-29T04:11:22.631Z,52.24
2019-03-29T04:13:53.884Z,52.55
2019-03-29T04:16:25.127Z,52.52
2019-03-29T04:18:56.169Z,52.49
2019-03-29T04:21:27.253Z,52.54
2019-03-29T04:23:58.374Z,52.20
2019-03-29T04:26:29.710Z,52.31
2019-03-29T04:29:04.606Z,52.50
2019-03-29T04:31:33.623Z,52.31
2019-03-29T04:34:04.702Z,52.39
2019-03-29T04:36:36.008Z,52.27
2019-03-29T04:39:07.217Z,52.18
2019-03-29T04:41:38.494Z,52.62
2019-03-29T04:44:09.560Z,52.46
2019-03-29T04:46:40.920Z,52.19
2019-03-29T04:49:12.287Z,52.36
2019-03-29T04:51:43.400Z,52.38
2019-03-29T04:54:14.366Z,52.58
2019-03-29T04:56:45.493Z,53.09
2019-03-29T04:59:16.546Z,52.47
2019-03-29T05:01:47.673Z,52.34
2019-03-29T05:04:18.821Z,52.72
2019-03-29T05:06:49.921Z,53.00
2019-03-29T05:09:22.756Z,52.60
2019-03-29T05:11:53.890Z,53.10
2019-03-29T05:14:24.941Z,52.61
2019-03-29T05:16:56.051Z,52.45
2019-03-29T05:19:27.118Z,52.76
2019-03-29T05:21:58.340Z,52.59
2019-03-29T05:24:29.496Z,52.76
2019-03-29T05:27:00.569Z,52.63
2019-03-29T05:29:33.194Z,52.47
2019-03-29T05:32:04.334Z,52.42
2019-03-29T05:34:36.977Z,52.53
2019-03-29T05:37:08.167Z,52.41
2019-03-29T05:39:39.416Z,52.13
2019-03-29T05:42:10.627Z,52.25
2019-03-29T05:44:42.149Z,52.08
2019-03-29T05:47:13.207Z,51.96
2019-03-29T05:49:44.440Z,52.09
2019-03-29T05:52:15.493Z,51.69
2019-03-29T05:54:46.749Z,52.76
2019-03-29T05:57:19.376Z,52.66
2019-03-29T05:59:50.707Z,52.14
2019-03-29T06:02:21.887Z,51.93
2019-03-29T06:04:53.207Z,51.90
2019-03-29T06:07:24.426Z,52.58
2019-03-29T06:09:55.554Z,52.58
2019-03-29T06:12:27.031Z,52.45
2019-03-29T06:14:58.437Z,52.39
2019-03-29T06:17:29.501Z,52.75
2019-03-29T06:20:00.846Z,52.76
2019-03-29T06:22:31.998Z,53.17
2019-03-29T06:25:03.127Z,53.12
2019-03-29T06:27:34.152Z,53.41
2019-03-29T06:30:06.757Z,52.87
2019-03-29T06:32:37.951Z,53.60
2019-03-29T06:35:09.142Z,53.17
2019-03-29T06:37:43.075Z,54.66
2019-03-29T06:40:20.853Z,53.22
2019-03-29T06:42:52.057Z,52.62
2019-03-29T06:45:23.162Z,52.07
2019-03-29T06:47:54.212Z,51.48
2019-03-29T06:50:25.396Z,52.23
2019-03-29T06:52:56.710Z,51.87
2019-03-29T06:55:27.969Z,51.84
2019-03-29T06:57:59.171Z,52.00
2019-03-29T07:00:30.467Z,50.73
2019-03-29T07:03:01.792Z,51.28
2019-03-29T07:05:33.014Z,50.19
2019-03-29T07:08:04.422Z,50.53
2019-03-29T07:10:35.642Z,50.11
2019-03-29T07:13:06.780Z,50.66
2019-03-29T07:15:37.794Z,50.83
2019-03-29T07:18:12.485Z,50.74
2019-03-29T07:20:44.621Z,50.11
2019-03-29T07:23:15.717Z,49.06
2019-03-29T07:25:46.951Z,48.17
2019-03-29T07:28:20.203Z,48.63
2019-03-29T07:30:51.351Z,48.37
2019-03-29T07:33:22.479Z,47.96
2019-03-29T07:35:53.636Z,47.96
2019-03-29T07:38:24.662Z,47.99
2019-03-29T07:40:55.753Z,48.79
2019-03-29T07:43:26.782Z,47.62
2019-03-29T07:45:57.858Z,46.69
2019-03-29T07:48:29.008Z,46.38
2019-03-29T07:51:00.130Z,45.59
2019-03-29T07:53:31.157Z,46.55
2019-03-29T07:56:02.278Z,45.16
2019-03-29T07:58:35.818Z,45.67
2019-03-29T08:01:08.362Z,44.89
2019-03-29T08:03:39.682Z,45.66
2019-03-29T08:06:11.319Z,42.14
2019-03-29T08:08:43.286Z,43.10
2019-03-29T08:11:25.465Z,41.97
2019-03-29T08:13:47.290Z,42.36
2019-03-29T08:16:18.874Z,41.63
2019-03-29T08:18:49.987Z,42.86
2019-03-29T08:21:21.163Z,43.00
2019-03-29T08:23:52.324Z,41.84
2019-03-29T08:26:23.379Z,42.63
2019-03-29T08:28:54.585Z,42.50
2019-03-29T08:31:25.795Z,42.67
2019-03-29T08:33:56.876Z,42.38
2019-03-29T08:36:27.911Z,41.45
2019-03-29T08:39:00.163Z,42.62
2019-03-29T08:41:31.327Z,41.63
2019-03-29T08:44:02.460Z,41.35
2019-03-29T08:46:34.547Z,40.75
2019-03-29T08:49:06.668Z,40.22
2019-03-29T08:51:41.217Z,41.42
2019-03-29T08:54:11.702Z,39.85
2019-03-29T08:56:42.869Z,41.40
2019-03-29T08:59:17.228Z,41.14
2019-03-29T09:01:47.015Z,40.95
2019-03-29T09:04:21.495Z,39.85
2019-03-29T09:06:54.155Z,40.36
2019-03-29T09:09:26.533Z,38.72
2019-03-29T09:11:57.652Z,38.38
2019-03-29T09:14:31.383Z,37.34
2019-03-29T09:17:03.969Z,37.24
2019-03-29T09:19:36.422Z,37.92
2019-03-29T09:22:07.523Z,38.05
2019-03-29T09:24:40.103Z,38.47
2019-03-29T09:27:11.218Z,39.41
2019-03-29T09:29:42.387Z,39.66
2019-03-29T09:32:13.620Z,39.44
2019-03-29T09:34:45.766Z,39.15
2019-03-29T09:37:17.010Z,39.29
2019-03-29T09:39:48.497Z,39.59
2019-03-29T09:42:28.814Z,38.86
2019-03-29T09:44:52.565Z,37.42
2019-03-29T09:47:23.783Z,37.10
2019-03-29T09:49:58.060Z,37.11
2019-03-29T09:52:29.238Z,36.54
2019-03-29T09:55:00.427Z,36.90
2019-03-29T09:57:37.518Z,37.07
2019-03-29T10:00:19.286Z,36.02
2019-03-29T10:02:42.954Z,36.30
2019-03-29T10:05:14.112Z,36.22
2019-03-29T10:07:45.518Z,35.22
2019-03-29T10:10:20.176Z,37.08
2019-03-29T10:12:53.648Z,36.77
2019-03-29T10:15:25.180Z,37.22
2019-03-29T10:17:56.229Z,36.24
2019-03-29T10:20:27.249Z,35.56
2019-03-29T10:22:58.346Z,37.04
2019-03-29T10:25:29.439Z,35.95
2019-03-29T10:28:00.428Z,36.43
2019-03-29T10:30:36.681Z,37.31
2019-03-29T10:33:07.906Z,38.16
2019-03-29T10:35:50.963Z,38.96
2019-03-29T10:38:12.577Z,37.58
2019-03-29T10:40:44.629Z,37.35
2019-03-29T10:43:15.661Z,37.40
2019-03-29T10:45:46.743Z,35.97
2019-03-29T10:48:17.924Z,37.53
2019-03-29T10:50:49.303Z,36.05
2019-03-29T10:53:20.413Z,36.84
2019-03-29T10:55:51.599Z,36.18
2019-03-29T10:58:22.526Z,35.45
2019-03-29T11:00:53.529Z,36.49
2019-03-29T11:03:24.611Z,35.91
2019-03-29T11:05:55.823Z,35.84
2019-03-29T11:08:29.970Z,35.82
2019-03-29T11:11:08.589Z,36.17
2019-03-29T11:13:41.159Z,36.68
2019-03-29T11:16:12.930Z,36.84
2019-03-29T11:18:45.741Z,37.38
2019-03-29T11:21:16.779Z,37.04
2019-03-29T11:23:47.977Z,35.89
2019-03-29T11:26:19.973Z,34.93
2019-03-29T11:28:51.095Z,35.65
2019-03-29T11:31:25.353Z,38.09
2019-03-29T11:33:55.020Z,37.26
2019-03-29T11:36:26.098Z,35.65
2019-03-29T11:38:58.455Z,36.72
2019-03-29T11:41:30.018Z,36.33
2019-03-29T11:44:00.946Z,35.20
2019-03-29T11:46:32.027Z,35.21
2019-03-29T11:49:03.089Z,33.90
2019-03-29T11:51:36.751Z,33.29
2019-03-29T11:54:07.855Z,36.26
2019-03-29T11:56:39.024Z,34.60
2019-03-29T11:59:10.141Z,34.68
2019-03-29T12:01:41.413Z,35.38
2019-03-29T12:04:12.500Z,34.11
2019-03-29T12:06:43.689Z,34.47
2019-03-29T12:09:16.736Z,33.46
2019-03-29T12:11:47.578Z,34.36
2019-03-29T12:14:18.693Z,34.56
2019-03-29T12:16:49.960Z,33.61
2019-03-29T12:19:21.048Z,33.94
2019-03-29T12:21:53.492Z,33.65
2019-03-29T12:24:24.892Z,34.29
2019-03-29T12:26:58.266Z,34.43
2019-03-29T12:29:32.726Z,35.08
2019-03-29T12:32:04.180Z,34.58
2019-03-29T12:34:35.217Z,35.11
2019-03-29T12:37:06.268Z,34.64
2019-03-29T12:39:37.288Z,34.99
2019-03-29T12:42:09.908Z,35.61
2019-03-29T12:44:41.039Z,35.50
2019-03-29T12:47:12.068Z,35.30
2019-03-29T12:49:42.991Z,35.15
2019-03-29T12:52:14.130Z,34.26
2019-03-29T12:54:45.215Z,33.74
2019-03-29T12:57:16.443Z,35.05
2019-03-29T12:59:47.534Z,35.24
2019-03-29T13:02:18.738Z,36.22
2019-03-29T13:04:49.888Z,35.36
2019-03-29T13:07:20.924Z,33.24
2019-03-29T13:09:53.558Z,33.30
2019-03-29T13:12:24.824Z,33.32
2019-03-29T13:14:55.858Z,34.96
2019-03-29T13:17:28.581Z,34.33
2019-03-29T13:20:00.753Z,34.17
2019-03-29T13:22:34.846Z,34.17
2019-03-29T13:25:07.561Z,34.72
2019-03-29T13:27:39.951Z,34.21
2019-03-29T13:30:12.019Z,35.23
2019-03-29T13:32:43.151Z,33.61
2019-03-29T13:35:14.081Z,34.50
2019-03-29T13:37:44.968Z,34.96
2019-03-29T13:40:15.891Z,34.39
2019-03-29T13:42:46.942Z,34.61
2019-03-29T13:45:18.800Z,34.03
2019-03-29T13:47:49.836Z,34.78
2019-03-29T13:50:21.229Z,35.48
2019-03-29T13:52:52.273Z,35.54
2019-03-29T13:55:23.933Z,35.88
2019-03-29T13:57:55.259Z,35.05
2019-03-29T14:00:26.431Z,35.68
2019-03-29T14:02:57.737Z,36.14
2019-03-29T14:05:28.828Z,34.61
2019-03-29T14:07:59.893Z,34.64
2019-03-29T14:10:31.068Z,35.02
2019-03-29T14:13:02.286Z,35.00
2019-03-29T14:15:33.486Z,34.64
2019-03-29T14:18:04.653Z,35.20
2019-03-29T14:20:35.975Z,36.32
2019-03-29T14:23:09.087Z,34.88
2019-03-29T14:25:40.261Z,34.73
2019-03-29T14:28:11.310Z,35.35
2019-03-29T14:30:42.495Z,35.67
2019-03-29T14:33:14.601Z,36.57
2019-03-29T14:35:45.662Z,36.65
2019-03-29T14:38:16.794Z,37.12
2019-03-29T14:40:47.904Z,36.88
2019-03-29T14:43:19.218Z,37.27
2019-03-29T14:45:50.422Z,36.47
2019-03-29T14:48:21.797Z,37.11
2019-03-29T14:50:52.921Z,36.80
2019-03-29T14:53:24.186Z,36.21
2019-03-29T14:55:55.207Z,37.81
2019-03-29T14:58:26.441Z,37.84
2019-03-29T15:00:57.594Z,37.24
2019-03-29T15:03:29.695Z,37.08
2019-03-29T15:06:01.819Z,37.42
2019-03-29T15:08:33.192Z,37.77
2019-03-29T15:11:04.317Z,37.60
2019-03-29T15:13:35.504Z,37.64
2019-03-29T15:16:06.536Z,37.23
2019-03-29T15:18:40.303Z,37.27
2019-03-29T15:21:11.850Z,37.68
2019-03-29T15:23:42.812Z,37.65
2019-03-29T15:26:13.949Z,38.55
2019-03-29T15:28:45.105Z,39.68
2019-03-29T15:31:17.291Z,39.15
2019-03-29T15:33:49.429Z,39.46
2019-03-29T15:36:20.489Z,39.71
2019-03-29T15:38:51.597Z,39.60
2019-03-29T15:41:22.598Z,39.87
2019-03-29T15:43:53.630Z,39.96
2019-03-29T15:46:24.779Z,40.03
2019-03-29T15:48:55.796Z,40.40
2019-03-29T15:51:26.883Z,40.32
2019-03-29T15:53:57.922Z,40.52
2019-03-29T15:56:28.957Z,40.68
2019-03-29T15:58:59.967Z,40.94
2019-03-29T16:01:31.973Z,40.90
2019-03-29T16:04:03.995Z,41.34
2019-03-29T16:06:35.052Z,41.46
2019-03-29T16:09:06.446Z,41.67
2019-03-29T16:11:37.587Z,41.62
2019-03-29T16:14:08.589Z,41.97
2019-03-29T16:16:39.647Z,42.13
2019-03-29T16:19:10.642Z,42.41
2019-03-29T16:21:42.762Z,42.62
2019-03-29T16:24:14.947Z,42.94
2019-03-29T16:26:46.036Z,43.01
2019-03-29T16:29:17.196Z,42.96
2019-03-29T16:31:48.604Z,43.21
2019-03-29T16:34:19.772Z,43.34
2019-03-29T16:36:50.835Z,43.51
2019-03-29T16:39:21.878Z,43.48
2019-03-29T16:41:53.006Z,43.67
2019-03-29T16:44:24.382Z,43.73
2019-03-29T16:46:55.482Z,43.83
2019-03-29T16:49:28.253Z,43.79
2019-03-29T16:51:59.330Z,43.91
2019-03-29T16:54:36.857Z,44.08
2019-03-29T16:57:07.963Z,44.26
2019-03-29T16:59:39.064Z,44.17
2019-03-29T17:02:10.330Z,44.16
2019-03-29T17:04:42.494Z,44.07
2019-03-29T17:07:13.588Z,45.25
2019-03-29T17:09:44.589Z,44.38
2019-03-29T17:12:15.740Z,44.43
2019-03-29T17:14:48.802Z,44.49
2019-03-29T17:17:20.250Z,44.59
2019-03-29T17:19:51.483Z,44.67
2019-03-29T17:22:22.738Z,44.80
2019-03-29T17:24:57.207Z,44.98
2019-03-29T17:27:28.568Z,45.22
2019-03-29T17:30:00.041Z,45.29
2019-03-29T17:32:31.262Z,45.46
2019-03-29T17:35:02.457Z,45.71
2019-03-29T17:37:33.601Z,45.76
2019-03-29T17:40:06.868Z,45.95
2019-03-29T17:42:38.001Z,46.48
2019-03-29T17:45:15.661Z,46.16
2019-03-29T17:47:46.769Z,46.34
2019-03-29T17:50:17.954Z,46.47
2019-03-29T17:52:49.152Z,46.60
2019-03-29T17:55:20.158Z,46.62
2019-03-29T17:57:51.284Z,46.84
2019-03-29T18:00:27.438Z,46.92
2019-03-29T18:02:58.731Z,47.17
2019-03-29T18:05:29.822Z,47.20
2019-03-29T18:08:00.853Z,47.61
2019-03-29T18:10:31.890Z,47.13
2019-03-29T18:13:04.899Z,47.18
2019-03-29T18:15:35.972Z,47.49
2019-03-29T18:18:07.163Z,47.60
2019-03-29T18:20:38.347Z,47.61
2019-03-29T18:23:09.438Z,47.69
2019-03-29T18:25:41.539Z,47.69
2019-03-29T18:28:12.674Z,47.66
2019-03-29T18:30:43.790Z,47.54
2019-03-29T18:33:14.920Z,47.61
2019-03-29T18:35:47.050Z,47.59
2019-03-29T18:38:18.149Z,47.58
2019-03-29T18:40:49.405Z,47.47
2019-03-29T18:43:20.506Z,47.59
2019-03-29T18:45:51.729Z,47.49
2019-03-29T18:48:22.902Z,47.38
2019-03-29T18:50:53.933Z,47.50
2019-03-29T18:53:25.139Z,47.29
2019-03-29T18:55:56.233Z,47.41
2019-03-29T18:58:27.446Z,47.22
2019-03-29T19:00:58.475Z,47.52
2019-03-29T19:03:29.787Z,47.28
2019-03-29T19:06:01.837Z,47.41
2019-03-29T19:08:32.896Z,47.45
2019-03-29T19:11:04.039Z,47.46
2019-03-29T19:13:35.272Z,47.50
2019-03-29T19:16:06.340Z,47.33
2019-03-29T19:18:37.565Z,47.16
2019-03-29T19:21:08.753Z,47.37
2019-03-29T19:23:39.879Z,47.56
2019-03-29T19:26:10.917Z,47.42
2019-03-29T19:28:41.937Z,47.45
2019-03-29T19:31:12.944Z,47.27
2019-03-29T19:33:44.059Z,47.30
2019-03-29T19:36:15.418Z,47.02
2019-03-29T19:38:46.943Z,47.15
2019-03-29T19:41:17.968Z,47.29
2019-03-29T19:43:49.106Z,47.09
2019-03-29T19:46:20.209Z,47.19
2019-03-29T19:48:51.396Z,47.41
2019-03-29T19:51:22.710Z,47.10
2019-03-29T19:54:06.795Z,47.18
2019-03-29T19:56:31.026Z,47.30
2019-03-29T19:59:02.235Z,47.30
2019-03-29T20:01:33.328Z,47.40
2019-03-29T20:04:04.802Z,47.45
2019-03-29T20:06:37.101Z,47.31
2019-03-29T20:09:08.818Z,47.32
2019-03-29T20:11:40.347Z,47.27
2019-03-29T20:14:11.887Z,47.65
2019-03-29T20:16:43.035Z,47.44
2019-03-29T20:19:14.364Z,47.42
2019-03-29T20:21:45.518Z,47.34
2019-03-29T20:24:17.331Z,47.42
2019-03-29T20:26:48.446Z,47.42
2019-03-29T20:29:19.544Z,47.46
2019-03-29T20:31:50.884Z,47.37
2019-03-29T20:34:22.075Z,47.42
2019-03-29T20:36:53.128Z,47.38
2019-03-29T20:39:24.323Z,47.38
2019-03-29T20:41:55.479Z,47.51
2019-03-29T20:44:26.654Z,47.58
2019-03-29T20:46:57.805Z,47.48
2019-03-29T20:49:29.019Z,47.66
2019-03-29T20:52:00.329Z,47.82
2019-03-29T20:54:31.699Z,47.89
2019-03-29T20:57:02.758Z,47.81
2019-03-29T20:59:33.850Z,48.03
2019-03-29T21:02:04.966Z,48.30
2019-03-29T21:04:36.149Z,48.14
2019-03-29T21:07:07.236Z,48.44
2019-03-29T21:09:38.351Z,48.66
2019-03-29T21:12:09.472Z,48.82
2019-03-29T21:14:40.553Z,48.61
2019-03-29T21:17:11.882Z,48.84
2019-03-29T21:19:43.126Z,48.98
2019-03-29T21:22:14.216Z,49.04
2019-03-29T21:24:45.380Z,49.10
2019-03-29T21:27:16.576Z,48.77
2019-03-29T21:29:47.847Z,48.85
2019-03-29T21:32:18.965Z,48.27
2019-03-29T21:34:50.278Z,48.37
2019-03-29T21:37:21.562Z,48.26
2019-03-29T21:39:52.723Z,48.06
2019-03-29T21:42:23.851Z,48.02
2019-03-29T21:44:55.336Z,48.04
2019-03-29T21:47:26.358Z,48.13
2019-03-29T21:49:57.422Z,48.17
2019-03-29T21:52:28.699Z,48.18
2019-03-29T21:54:59.898Z,48.20
2019-03-29T21:57:30.935Z,48.21
2019-03-29T22:00:02.371Z,48.53
2019-03-29T22:02:33.942Z,48.52
2019-03-29T22:05:06.225Z,48.69
2019-03-29T22:07:38.448Z,48.78
2019-03-29T22:10:11.416Z,48.92
2019-03-29T22:12:43.422Z,48.98
2019-03-29T22:15:19.087Z,49.08
2019-03-29T22:17:50.403Z,49.27
2019-03-29T22:20:21.751Z,49.47
2019-03-29T22:22:53.015Z,49.51
2019-03-29T22:25:24.264Z,49.56
2019-03-29T22:27:55.573Z,49.78
2019-03-29T22:30:26.948Z,49.56
2019-03-29T22:32:58.139Z,49.74
2019-03-29T22:35:29.252Z,49.89
2019-03-29T22:38:01.930Z,49.76
2019-03-29T22:40:33.210Z,49.80
2019-03-29T22:43:07.304Z,50.03
2019-03-29T22:45:38.346Z,50.11
2019-03-29T22:48:10.489Z,50.41
2019-03-29T22:50:41.626Z,50.52
2019-03-29T22:53:12.845Z,50.33
2019-03-29T22:55:43.945Z,50.42
2019-03-29T22:58:16.028Z,50.66
2019-03-29T23:00:51.682Z,51.10
2019-03-29T23:03:22.955Z,50.87
2019-03-29T23:05:54.115Z,51.09
2019-03-29T23:08:25.170Z,51.19
2019-03-29T23:10:56.163Z,51.21
2019-03-29T23:13:28.874Z,51.38
2019-03-29T23:15:59.980Z,51.48
2019-03-29T23:18:33.632Z,51.20
2019-03-29T23:21:04.669Z,51.32
2019-03-29T23:23:35.819Z,51.43
2019-03-29T23:26:06.900Z,51.54
2019-03-29T23:28:38.384Z,51.55
2019-03-29T23:31:09.468Z,51.52
2019-03-29T23:33:40.773Z,51.61
2019-03-29T23:36:11.861Z,51.64
2019-03-29T23:38:49.156Z,51.75
2019-03-29T23:41:20.443Z,51.56
2019-03-29T23:43:51.562Z,51.62
2019-03-29T23:46:23.836Z,51.74
2019-03-29T23:48:55.163Z,51.75
